createdAt,value
2019-02-15T00:00:38.904Z,0.46
2019-02-15T00:03:08.338Z,0.48
2019-02-15T00:05:37.788Z,0.40
2019-02-15T00:08:07.214Z,0.40
2019-02-15T00:10:36.664Z,0.34
2019-02-15T00:13:13.228Z,0.29
2019-02-15T00:15:37.297Z,0.20
2019-02-15T00:18:08.696Z,0.28
2019-02-15T00:20:42.456Z,0.17
2019-02-15T00:23:11.886Z,0.27
2019-02-15T00:25:41.363Z,0.26
2019-02-15T00:28:10.796Z,0.30
2019-02-15T00:30:40.239Z,0.22
2019-02-15T00:33:09.684Z,0.28
2019-02-15T00:35:39.128Z,0.28
2019-02-15T00:38:08.565Z,0.32
2019-02-15T00:40:38.022Z,0.31
2019-02-15T00:43:07.497Z,0.09
2019-02-15T00:45:41.141Z,0.01
2019-02-15T00:48:15.268Z,0.08
2019-02-15T00:50:52.561Z,-0.01
2019-02-15T00:53:23.661Z,-0.07
2019-02-15T00:55:54.798Z,0.10
2019-02-15T00:58:28.306Z,0.16
2019-02-15T01:01:02.531Z,0.17
2019-02-15T01:03:33.599Z,0.02
2019-02-15T01:06:20.732Z,0.05
2019-02-15T01:08:57.732Z,-0.12
2019-02-15T01:11:28.811Z,-0.06
2019-02-15T01:13:58.257Z,-0.11
2019-02-15T01:16:27.712Z,-0.10
2019-02-15T01:18:57.146Z,-0.15
2019-02-15T01:21:26.604Z,-0.21
2019-02-15T01:23:56.035Z,-0.26
2019-02-15T01:26:27.127Z,-0.31
2019-02-15T01:29:03.874Z,-0.30
2019-02-15T01:31:34.958Z,-0.24
2019-02-15T01:34:21.852Z,-0.14
2019-02-15T01:36:59.200Z,-0.25
2019-02-15T01:39:30.277Z,-0.32
2019-02-15T01:42:13.119Z,-0.33
2019-02-15T01:44:49.959Z,-0.26
2019-02-15T01:47:20.075Z,-0.12
2019-02-15T01:49:49.514Z,-0.14
2019-02-15T01:52:18.952Z,-0.17
2019-02-15T01:54:48.391Z,-0.16
2019-02-15T01:57:17.854Z,-0.38
2019-02-15T01:59:47.278Z,-0.50
2019-02-15T02:02:16.798Z,-0.40
2019-02-15T02:04:46.230Z,-0.37
2019-02-15T02:07:15.681Z,-0.49
2019-02-15T02:09:45.124Z,-0.46
2019-02-15T02:12:15.005Z,-0.36
2019-02-15T02:14:44.449Z,-0.34
2019-02-15T02:17:13.894Z,-0.28
2019-02-15T02:19:43.336Z,-0.27
2019-02-15T02:22:12.781Z,-0.33
2019-02-15T02:24:42.221Z,-0.17
2019-02-15T02:27:11.662Z,-0.16
2019-02-15T02:29:41.117Z,-0.26
2019-02-15T02:32:10.563Z,-0.28
2019-02-15T02:34:40.006Z,-0.32
2019-02-15T02:37:09.440Z,-0.25
2019-02-15T02:39:38.886Z,-0.39
2019-02-15T02:42:08.323Z,-0.50
2019-02-15T02:44:37.769Z,-0.52
2019-02-15T02:47:07.204Z,-0.57
2019-02-15T02:49:36.647Z,-0.60
2019-02-15T02:52:06.089Z,-0.45
2019-02-15T02:54:35.537Z,-0.49
2019-02-15T02:57:04.975Z,-0.62
2019-02-15T02:59:34.420Z,-0.67
2019-02-15T03:02:03.861Z,-0.73
2019-02-15T03:04:33.317Z,-0.70
2019-02-15T03:07:02.820Z,-0.64
2019-02-15T03:09:32.263Z,-0.67
2019-02-15T03:12:01.701Z,-0.56
2019-02-15T03:14:31.213Z,-0.54
2019-02-15T03:17:00.644Z,-0.54
2019-02-15T03:19:30.928Z,-0.43
2019-02-15T03:22:00.363Z,-0.38
2019-02-15T03:24:29.819Z,-0.31
2019-02-15T03:26:59.257Z,-0.34
2019-02-15T03:29:28.702Z,-0.38
2019-02-15T03:31:58.140Z,-0.41
2019-02-15T03:34:27.590Z,-0.46
2019-02-15T03:36:58.666Z,-0.59
2019-02-15T03:39:48.022Z,-0.56
2019-02-15T03:42:17.730Z,-0.49
2019-02-15T03:44:47.182Z,-0.57
2019-02-15T03:47:18.260Z,-0.56
2019-02-15T03:49:47.701Z,-0.54
2019-02-15T03:52:17.141Z,-0.60
2019-02-15T03:54:46.589Z,-0.65
2019-02-15T03:57:16.020Z,-0.70
2019-02-15T03:59:45.534Z,-0.58
2019-02-15T04:02:14.974Z,-0.56
2019-02-15T04:04:44.409Z,-0.84
2019-02-15T04:07:13.838Z,-0.93
2019-02-15T04:09:43.290Z,-1.05
2019-02-15T04:12:12.792Z,-0.86
2019-02-15T04:14:42.235Z,-0.96
2019-02-15T04:17:11.677Z,-0.82
2019-02-15T04:19:41.126Z,-0.85
2019-02-15T04:22:10.562Z,-1.00
2019-02-15T04:24:40.018Z,-1.08
2019-02-15T04:27:09.715Z,-1.11
2019-02-15T04:29:39.156Z,-1.16
2019-02-15T04:32:08.591Z,-1.16
2019-02-15T04:34:38.037Z,-1.16
2019-02-15T04:37:07.467Z,-1.08
2019-02-15T04:39:36.909Z,-1.01
2019-02-15T04:42:06.350Z,-1.02
2019-02-15T04:44:42.511Z,-1.09
2019-02-15T04:47:06.954Z,-1.05
2019-02-15T04:49:36.404Z,-1.03
2019-02-15T04:52:05.846Z,-1.09
2019-02-15T04:54:35.292Z,-1.13
2019-02-15T04:57:04.729Z,-1.14
2019-02-15T04:59:34.169Z,-1.18
2019-02-15T05:02:03.608Z,-1.14
2019-02-15T05:04:33.049Z,-1.30
2019-02-15T05:07:02.488Z,-1.31
2019-02-15T05:09:31.929Z,-1.38
2019-02-15T05:12:01.386Z,-1.41
2019-02-15T05:14:30.846Z,-1.36
2019-02-15T05:17:00.278Z,-1.40
2019-02-15T05:19:29.715Z,-1.41
2019-02-15T05:21:59.164Z,-1.42
2019-02-15T05:24:28.599Z,-1.36
2019-02-15T05:26:58.051Z,-1.45
2019-02-15T05:29:27.488Z,-1.42
2019-02-15T05:31:56.946Z,-1.49
2019-02-15T05:34:26.377Z,-1.28
2019-02-15T05:36:55.825Z,-1.34
2019-02-15T05:39:25.256Z,-1.35
2019-02-15T05:41:54.709Z,-1.42
2019-02-15T05:44:24.147Z,-1.51
2019-02-15T05:46:53.596Z,-1.33
2019-02-15T05:49:23.033Z,-1.40
2019-02-15T05:51:52.477Z,-1.46
2019-02-15T05:54:21.911Z,-1.44
2019-02-15T05:56:51.650Z,-1.40
2019-02-15T05:59:21.090Z,-1.24
2019-02-15T06:01:50.537Z,-1.23
2019-02-15T06:04:19.976Z,-1.28
2019-02-15T06:06:49.423Z,-1.27
2019-02-15T06:09:18.865Z,-1.33
2019-02-15T06:11:48.313Z,-1.41
2019-02-15T06:14:18.017Z,-1.34
2019-02-15T06:16:47.472Z,-1.27
2019-02-15T06:19:16.912Z,-1.28
2019-02-15T06:21:46.350Z,-1.16
2019-02-15T06:24:15.783Z,-1.13
2019-02-15T06:26:45.256Z,-1.09
2019-02-15T06:29:14.680Z,-1.12
2019-02-15T06:31:44.123Z,-1.13
2019-02-15T06:34:13.562Z,-1.03
2019-02-15T06:36:43.021Z,-1.02
2019-02-15T06:39:12.461Z,-1.11
2019-02-15T06:41:41.910Z,-1.03
2019-02-15T06:44:11.343Z,-0.93
2019-02-15T06:46:40.792Z,-1.01
2019-02-15T06:49:10.224Z,-1.12
2019-02-15T06:51:39.668Z,-1.15
2019-02-15T06:54:09.113Z,-1.10
2019-02-15T06:56:38.556Z,-1.11
2019-02-15T06:59:26.055Z,-1.08
2019-02-15T07:01:57.147Z,-1.14
2019-02-15T07:04:28.221Z,-1.18
2019-02-15T07:06:57.666Z,-1.04
2019-02-15T07:09:27.102Z,-0.88
2019-02-15T07:11:56.550Z,-0.99
2019-02-15T07:14:25.988Z,-0.98
2019-02-15T07:16:55.431Z,-1.11
2019-02-15T07:19:24.940Z,-1.08
2019-02-15T07:21:54.392Z,-1.14
2019-02-15T07:24:23.825Z,-1.10
2019-02-15T07:26:53.273Z,-1.09
2019-02-15T07:29:22.734Z,-1.08
2019-02-15T07:31:52.180Z,-0.98
2019-02-15T07:34:21.626Z,-0.87
2019-02-15T07:36:51.063Z,-0.79
2019-02-15T07:39:20.517Z,-0.78
2019-02-15T07:41:50.968Z,-0.64
2019-02-15T07:44:20.415Z,-0.64
2019-02-15T07:46:49.854Z,-0.53
2019-02-15T07:49:26.687Z,-0.45
2019-02-15T07:51:50.455Z,-0.39
2019-02-15T07:54:19.907Z,-0.35
2019-02-15T07:56:49.344Z,-0.35
2019-02-15T07:59:18.794Z,-0.29
2019-02-15T08:01:48.239Z,-0.19
2019-02-15T08:04:17.686Z,-0.17
2019-02-15T08:06:47.432Z,-0.02
2019-02-15T08:09:16.878Z,-0.01
2019-02-15T08:11:46.317Z,0.12
2019-02-15T08:14:17.533Z,0.18
2019-02-15T08:16:46.918Z,0.35
2019-02-15T08:19:16.364Z,0.52
2019-02-15T08:21:45.807Z,0.55
2019-02-15T08:24:15.301Z,0.64
2019-02-15T08:26:44.730Z,0.73
2019-02-15T08:29:14.173Z,0.73
2019-02-15T08:31:43.610Z,0.81
2019-02-15T08:34:13.048Z,0.79
2019-02-15T08:36:42.482Z,0.86
2019-02-15T08:39:11.939Z,0.87
2019-02-15T08:41:41.367Z,0.90
2019-02-15T08:44:10.815Z,0.92
2019-02-15T08:46:40.259Z,0.97
2019-02-15T08:49:09.704Z,1.09
2019-02-15T08:51:39.149Z,1.12
2019-02-15T08:54:08.593Z,1.24
2019-02-15T08:56:38.026Z,1.37
2019-02-15T08:59:07.470Z,1.43
2019-02-15T09:01:36.906Z,1.54
2019-02-15T09:04:06.359Z,1.56
2019-02-15T09:06:35.789Z,1.67
2019-02-15T09:09:06.178Z,1.80
2019-02-15T09:11:35.842Z,1.83
2019-02-15T09:14:05.282Z,1.91
2019-02-15T09:16:34.718Z,1.96
2019-02-15T09:19:04.163Z,2.03
2019-02-15T09:21:33.607Z,2.10
2019-02-15T09:24:03.051Z,2.12
2019-02-15T09:26:32.488Z,2.22
2019-02-15T09:29:03.705Z,2.25
2019-02-15T09:31:33.140Z,2.32
2019-02-15T09:34:02.599Z,2.35
2019-02-15T09:36:32.019Z,2.37
2019-02-15T09:39:01.469Z,2.43
2019-02-15T09:41:30.901Z,2.50
2019-02-15T09:44:00.349Z,2.57
2019-02-15T09:46:29.795Z,2.66
2019-02-15T09:48:59.231Z,2.67
2019-02-15T09:51:28.668Z,2.71
2019-02-15T09:53:58.123Z,2.82
2019-02-15T09:56:27.551Z,2.86
2019-02-15T09:58:56.988Z,2.96
2019-02-15T10:01:26.428Z,2.96
2019-02-15T10:03:55.884Z,3.00
2019-02-15T10:06:25.323Z,3.03
2019-02-15T10:08:54.753Z,3.12
2019-02-15T10:11:24.197Z,3.16
2019-02-15T10:13:53.631Z,3.22
2019-02-15T10:16:28.950Z,3.32
2019-02-15T10:18:54.239Z,3.41
2019-02-15T10:21:23.687Z,3.49
2019-02-15T10:23:53.122Z,3.53
2019-02-15T10:26:23.035Z,3.62
2019-02-15T10:28:52.468Z,3.62
2019-02-15T10:31:21.998Z,3.72
2019-02-15T10:33:51.435Z,3.85
2019-02-15T10:36:20.875Z,3.88
2019-02-15T10:38:50.316Z,3.93
2019-02-15T10:41:19.763Z,4.06
2019-02-15T10:43:49.195Z,4.06
2019-02-15T10:46:18.641Z,4.19
2019-02-15T10:48:48.069Z,4.24
2019-02-15T10:51:17.522Z,4.28
2019-02-15T10:53:46.955Z,4.44
2019-02-15T10:56:16.399Z,4.51
2019-02-15T10:58:45.830Z,4.55
2019-02-15T11:01:15.281Z,4.68
2019-02-15T11:03:44.790Z,4.75
2019-02-15T11:06:14.247Z,4.82
2019-02-15T11:08:43.681Z,4.95
2019-02-15T11:11:13.131Z,5.03
2019-02-15T11:13:42.573Z,5.11
2019-02-15T11:16:12.014Z,5.20
2019-02-15T11:18:41.466Z,5.31
2019-02-15T11:21:10.902Z,5.41
2019-02-15T11:23:40.359Z,5.57
2019-02-15T11:26:09.793Z,5.77
2019-02-15T11:28:39.234Z,5.76
2019-02-15T11:31:08.679Z,5.81
2019-02-15T11:33:38.126Z,5.85
2019-02-15T11:36:07.635Z,5.95
2019-02-15T11:38:37.074Z,6.09
2019-02-15T11:41:11.271Z,6.13
2019-02-15T11:43:37.740Z,6.22
2019-02-15T11:46:07.183Z,6.32
2019-02-15T11:48:36.619Z,6.47
2019-02-15T11:51:06.129Z,6.53
2019-02-15T11:53:35.567Z,6.60
2019-02-15T11:56:05.013Z,6.66
2019-02-15T11:58:34.442Z,6.77
2019-02-15T12:01:05.380Z,6.86
2019-02-15T12:03:34.813Z,6.96
2019-02-15T12:06:04.273Z,7.08
2019-02-15T12:08:33.702Z,7.14
2019-02-15T12:11:03.214Z,7.23
2019-02-15T12:13:32.645Z,7.35
2019-02-15T12:16:02.084Z,7.49
2019-02-15T12:18:31.527Z,7.62
2019-02-15T12:21:00.979Z,7.72
2019-02-15T12:23:30.420Z,7.84
2019-02-15T12:25:59.865Z,7.95
2019-02-15T12:28:30.609Z,8.07
2019-02-15T12:31:00.217Z,8.19
2019-02-15T12:33:29.654Z,8.30
2019-02-15T12:35:59.095Z,8.49
2019-02-15T12:38:28.547Z,8.80
2019-02-15T12:40:57.977Z,8.90
2019-02-15T12:43:27.427Z,8.94
2019-02-15T12:45:56.856Z,9.01
2019-02-15T12:48:26.312Z,9.05
2019-02-15T12:50:55.736Z,9.14
2019-02-15T12:53:25.195Z,9.40
2019-02-15T12:55:54.623Z,9.78
2019-02-15T12:58:24.067Z,9.97
2019-02-15T13:00:53.508Z,10.32
2019-02-15T13:03:22.956Z,10.42
2019-02-15T13:05:52.408Z,10.84
2019-02-15T13:08:21.855Z,11.29
2019-02-15T13:10:51.298Z,11.25
2019-02-15T13:13:20.745Z,11.60
2019-02-15T13:15:50.200Z,17.02
2019-02-15T13:18:19.638Z,20.34
2019-02-15T13:20:49.085Z,20.67
2019-02-15T13:23:18.539Z,16.72
2019-02-15T13:25:47.988Z,15.03
2019-02-15T13:28:17.430Z,13.50
2019-02-15T13:30:46.866Z,12.96
2019-02-15T13:33:16.316Z,12.49
2019-02-15T13:35:45.991Z,12.30
2019-02-15T13:38:15.433Z,12.22
2019-02-15T13:40:44.954Z,12.10
2019-02-15T13:43:14.407Z,12.17
2019-02-15T13:45:43.849Z,12.07
2019-02-15T13:48:13.302Z,12.00
2019-02-15T13:50:42.754Z,12.00
2019-02-15T13:53:12.190Z,11.93
2019-02-15T13:55:41.627Z,11.87
2019-02-15T13:58:11.085Z,11.83
2019-02-15T14:00:40.523Z,11.87
2019-02-15T14:03:09.962Z,12.08
2019-02-15T14:05:39.405Z,12.04
2019-02-15T14:08:08.855Z,12.03
2019-02-15T14:10:38.291Z,12.02
2019-02-15T14:13:07.740Z,11.96
2019-02-15T14:15:37.182Z,11.95
2019-02-15T14:18:06.639Z,11.94
2019-02-15T14:20:36.078Z,12.02
2019-02-15T14:23:05.521Z,12.09
2019-02-15T14:25:34.969Z,12.07
2019-02-15T14:28:04.420Z,12.07
2019-02-15T14:30:33.846Z,12.05
2019-02-15T14:33:03.300Z,12.05
2019-02-15T14:35:33.538Z,12.04
2019-02-15T14:38:03.057Z,12.03
2019-02-15T14:40:32.496Z,12.07
2019-02-15T14:43:01.948Z,12.12
2019-02-15T14:45:31.386Z,12.15
2019-02-15T14:48:00.842Z,12.17
2019-02-15T14:50:30.273Z,12.28
2019-02-15T14:52:59.709Z,12.28
2019-02-15T14:55:29.157Z,12.31
2019-02-15T14:57:58.679Z,12.33
2019-02-15T15:00:28.135Z,12.30
2019-02-15T15:02:57.576Z,12.31
2019-02-15T15:05:27.031Z,12.33
2019-02-15T15:07:56.504Z,12.30
2019-02-15T15:10:26.432Z,12.32
2019-02-15T15:12:55.865Z,12.30
2019-02-15T15:15:25.317Z,12.33
2019-02-15T15:18:05.955Z,12.38
2019-02-15T15:20:25.936Z,12.44
2019-02-15T15:22:55.374Z,12.46
2019-02-15T15:25:24.825Z,12.47
2019-02-15T15:27:54.279Z,16.04
2019-02-15T15:30:23.724Z,20.22
2019-02-15T15:32:53.162Z,17.05
2019-02-15T15:35:24.381Z,15.34
2019-02-15T15:37:53.820Z,14.75
2019-02-15T15:40:23.585Z,14.45
2019-02-15T15:42:53.028Z,16.92
2019-02-15T15:45:22.822Z,22.11
2019-02-15T15:47:52.260Z,22.85
2019-02-15T15:50:21.717Z,17.24
2019-02-15T15:52:51.146Z,15.45
2019-02-15T15:55:20.597Z,14.66
2019-02-15T15:57:50.035Z,14.17
2019-02-15T16:00:19.495Z,13.89
2019-02-15T16:02:49.264Z,13.64
2019-02-15T16:05:18.710Z,13.48
2019-02-15T16:07:48.151Z,13.35
2019-02-15T16:10:17.606Z,13.17
2019-02-15T16:12:47.069Z,12.99
2019-02-15T16:15:16.517Z,12.84
2019-02-15T16:17:45.944Z,12.68
2019-02-15T16:20:15.621Z,12.53
2019-02-15T16:22:45.008Z,12.33
2019-02-15T16:25:14.463Z,12.29
2019-02-15T16:27:43.906Z,12.15
2019-02-15T16:30:16.006Z,11.98
2019-02-15T16:32:45.470Z,11.89
2019-02-15T16:35:14.904Z,11.73
2019-02-15T16:37:44.335Z,11.62
2019-02-15T16:40:15.592Z,11.47
2019-02-15T16:42:45.266Z,11.41
2019-02-15T16:45:16.892Z,11.28
2019-02-15T16:47:46.338Z,11.16
2019-02-15T16:50:15.778Z,11.06
2019-02-15T16:52:45.214Z,10.95
2019-02-15T16:55:14.687Z,10.92
2019-02-15T16:57:44.114Z,10.82
2019-02-15T17:00:14.871Z,10.69
2019-02-15T17:02:44.315Z,10.59
2019-02-15T17:05:13.768Z,10.52
2019-02-15T17:07:43.213Z,10.42
2019-02-15T17:10:12.900Z,10.25
2019-02-15T17:12:42.337Z,10.17
2019-02-15T17:15:15.987Z,10.08
2019-02-15T17:17:45.420Z,9.98
2019-02-15T17:20:14.869Z,9.87
2019-02-15T17:22:44.392Z,9.78
2019-02-15T17:25:13.836Z,9.66
2019-02-15T17:27:43.276Z,9.61
2019-02-15T17:30:12.975Z,9.57
2019-02-15T17:32:42.425Z,9.49
2019-02-15T17:35:13.600Z,9.40
2019-02-15T17:37:43.046Z,9.39
2019-02-15T17:40:15.959Z,9.25
2019-02-15T17:42:45.406Z,9.11
2019-02-15T17:45:14.925Z,9.04
2019-02-15T17:47:44.362Z,9.05
2019-02-15T17:50:14.049Z,8.89
2019-02-15T17:52:43.493Z,8.85
2019-02-15T17:55:12.920Z,8.75
2019-02-15T17:57:42.364Z,8.66
2019-02-15T18:00:17.716Z,8.64
2019-02-15T18:02:47.267Z,8.60
2019-02-15T18:05:16.726Z,8.48
2019-02-15T18:07:48.808Z,8.43
2019-02-15T18:10:18.290Z,8.29
2019-02-15T18:12:47.740Z,8.28
2019-02-15T18:15:17.188Z,8.23
2019-02-15T18:17:46.630Z,8.15
2019-02-15T18:20:16.069Z,8.10
2019-02-15T18:22:45.520Z,8.00
2019-02-15T18:25:14.962Z,8.01
2019-02-15T18:27:44.415Z,7.96
2019-02-15T18:30:16.528Z,7.85
2019-02-15T18:32:45.984Z,7.80
2019-02-15T18:35:15.427Z,7.78
2019-02-15T18:37:44.886Z,7.66
2019-02-15T18:40:14.316Z,7.61
2019-02-15T18:42:43.765Z,7.51
2019-02-15T18:45:17.253Z,7.33
2019-02-15T18:47:46.711Z,7.21
2019-02-15T18:50:16.149Z,7.26
2019-02-15T18:52:45.598Z,7.18
2019-02-15T18:55:15.040Z,7.17
2019-02-15T18:57:44.480Z,7.06
2019-02-15T19:00:17.968Z,7.04
2019-02-15T19:02:50.221Z,6.95
2019-02-15T19:05:19.653Z,6.87
2019-02-15T19:07:49.100Z,6.78
2019-02-15T19:10:25.151Z,6.65
2019-02-15T19:12:54.599Z,6.60
2019-02-15T19:15:24.026Z,6.42
2019-02-15T19:17:53.475Z,6.33
2019-02-15T19:20:22.907Z,6.25
2019-02-15T19:22:52.347Z,6.26
2019-02-15T19:25:22.050Z,6.12
2019-02-15T19:27:51.497Z,5.97
2019-02-15T19:30:28.740Z,5.92
2019-02-15T19:32:58.188Z,5.88
2019-02-15T19:35:27.619Z,5.76
2019-02-15T19:37:57.065Z,5.66
2019-02-15T19:40:26.493Z,5.53
2019-02-15T19:43:03.924Z,5.56
2019-02-15T19:45:33.360Z,5.52
2019-02-15T19:48:02.812Z,5.46
2019-02-15T19:50:32.244Z,5.37
2019-02-15T19:53:01.672Z,5.31
2019-02-15T19:55:31.118Z,5.28
2019-02-15T19:58:00.551Z,5.31
2019-02-15T20:00:31.855Z,5.27
2019-02-15T20:03:01.302Z,5.11
2019-02-15T20:05:30.745Z,4.97
2019-02-15T20:08:00.186Z,5.01
2019-02-15T20:10:31.494Z,4.99
2019-02-15T20:13:01.030Z,4.81
2019-02-15T20:15:30.493Z,4.86
2019-02-15T20:17:59.875Z,4.85
2019-02-15T20:20:29.319Z,4.72
2019-02-15T20:22:58.741Z,4.55
2019-02-15T20:25:28.183Z,4.55
2019-02-15T20:27:57.614Z,4.53
2019-02-15T20:30:27.306Z,4.56
2019-02-15T20:32:56.740Z,4.38
2019-02-15T20:35:26.179Z,4.45
2019-02-15T20:37:55.613Z,4.42
2019-02-15T20:40:25.074Z,4.25
2019-02-15T20:42:54.490Z,4.28
2019-02-15T20:45:24.479Z,4.14
2019-02-15T20:47:53.924Z,4.12
2019-02-15T20:50:23.353Z,4.10
2019-02-15T20:52:52.783Z,4.16
2019-02-15T20:55:22.239Z,4.13
2019-02-15T20:57:51.653Z,3.93
2019-02-15T21:00:24.972Z,3.85
2019-02-15T21:02:54.404Z,3.95
2019-02-15T21:05:23.851Z,3.94
2019-02-15T21:07:53.280Z,3.87
2019-02-15T21:10:22.719Z,3.85
2019-02-15T21:12:52.147Z,3.79
2019-02-15T21:15:24.319Z,3.92
2019-02-15T21:17:53.946Z,3.81
2019-02-15T21:20:24.660Z,3.63
2019-02-15T21:22:54.296Z,3.47
2019-02-15T21:25:23.735Z,3.30
2019-02-15T21:27:53.162Z,3.28
2019-02-15T21:30:22.606Z,3.27
2019-02-15T21:32:52.035Z,3.24
2019-02-15T21:35:21.477Z,3.26
2019-02-15T21:37:50.905Z,3.31
2019-02-15T21:40:20.416Z,3.22
2019-02-15T21:42:51.996Z,3.11
2019-02-15T21:45:21.001Z,3.02
2019-02-15T21:47:50.425Z,2.81
2019-02-15T21:50:19.867Z,2.91
2019-02-15T21:52:49.292Z,2.85
2019-02-15T21:55:18.735Z,2.79
2019-02-15T21:57:48.165Z,2.85
2019-02-15T22:00:24.421Z,2.78
2019-02-15T22:02:53.867Z,2.76
2019-02-15T22:05:23.306Z,2.57
2019-02-15T22:07:52.737Z,2.56
2019-02-15T22:10:22.169Z,2.44
2019-02-15T22:12:51.617Z,2.46
2019-02-15T22:15:21.715Z,2.53
2019-02-15T22:17:51.159Z,2.59
2019-02-15T22:20:26.694Z,2.57
2019-02-15T22:22:51.757Z,2.64
2019-02-15T22:25:21.195Z,2.67
2019-02-15T22:27:50.638Z,2.50
2019-02-15T22:30:21.014Z,2.57
2019-02-15T22:32:50.454Z,2.52
2019-02-15T22:35:19.895Z,2.41
2019-02-15T22:37:49.354Z,2.40
2019-02-15T22:40:30.968Z,2.40
2019-02-15T22:43:16.420Z,2.24
2019-02-15T22:45:47.498Z,2.26
2019-02-15T22:48:16.947Z,2.11
2019-02-15T22:50:46.388Z,1.99
2019-02-15T22:53:15.823Z,1.94
2019-02-15T22:55:45.253Z,1.86
2019-02-15T22:58:14.695Z,1.75
2019-02-15T23:01:03.849Z,1.71
2019-02-15T23:03:33.289Z,1.77
2019-02-15T23:06:02.787Z,1.77
2019-02-15T23:08:32.224Z,1.75
2019-02-15T23:11:01.661Z,1.77
2019-02-15T23:13:31.105Z,1.81
2019-02-15T23:16:00.539Z,1.70
2019-02-15T23:18:29.979Z,1.74
2019-02-15T23:20:59.408Z,1.70
2019-02-15T23:23:28.857Z,1.61
2019-02-15T23:25:58.287Z,1.49
2019-02-15T23:28:27.727Z,1.53
2019-02-15T23:30:57.200Z,1.52
2019-02-15T23:33:26.609Z,1.54
2019-02-15T23:35:56.038Z,1.55
2019-02-15T23:38:25.487Z,1.58
2019-02-15T23:40:54.932Z,1.46
2019-02-15T23:43:24.365Z,1.51
2019-02-15T23:45:53.797Z,1.46
2019-02-15T23:48:23.252Z,1.45
2019-02-15T23:50:55.135Z,1.26
2019-02-15T23:53:23.857Z,1.23
2019-02-15T23:55:55.062Z,1.28
2019-02-15T23:58:24.516Z,1.37
